sensor_id;sensor_type;location;lat;lon;timestamp;pressure;altitude;pressure_sealevel;temperature;humidity
84528;BME280;74768;51.152;6.196;2024-01-25T00:00:15;102104.78;;;7.78;89.30
84528;BME280;74768;51.152;6.196;2024-01-25T00:02:41;102109.25;;;7.67;90.17
84528;BME280;74768;51.152;6.196;2024-01-25T00:05:06;102119.78;;;7.67;90.29
84528;BME280;74768;51.152;6.196;2024-01-25T00:07:32;102116.28;;;7.65;90.50
84528;BME280;74768;51.152;6.196;2024-01-25T00:09:57;102120.59;;;7.73;90.28
84528;BME280;74768;51.152;6.196;2024-01-25T00:12:23;102111.84;;;7.71;90.22
84528;BME280;74768;51.152;6.196;2024-01-25T00:14:48;102128.50;;;7.70;90.89
84528;BME280;74768;51.152;6.196;2024-01-25T00:17:14;102119.72;;;7.68;90.54
84528;BME280;74768;51.152;6.196;2024-01-25T00:19:39;102115.41;;;7.64;90.67
84528;BME280;74768;51.152;6.196;2024-01-25T00:22:06;102115.44;;;7.58;90.72
84528;BME280;74768;51.152;6.196;2024-01-25T00:24:32;102128.63;;;7.51;91.19
84528;BME280;74768;51.152;6.196;2024-01-25T00:26:58;102126.00;;;7.49;91.68
84528;BME280;74768;51.152;6.196;2024-01-25T00:29:23;102124.25;;;7.48;91.50
84528;BME280;74768;51.152;6.196;2024-01-25T00:31:49;102123.38;;;7.52;91.70
84528;BME280;74768;51.152;6.196;2024-01-25T00:34:14;102118.91;;;7.60;91.68
84528;BME280;74768;51.152;6.196;2024-01-25T00:36:40;102127.63;;;7.70;91.23
84528;BME280;74768;51.152;6.196;2024-01-25T00:39:06;102136.31;;;7.75;90.92
84528;BME280;74768;51.152;6.196;2024-01-25T00:41:32;102131.97;;;7.74;91.18
84528;BME280;74768;51.152;6.196;2024-01-25T00:43:58;102131.97;;;7.74;91.14
84528;BME280;74768;51.152;6.196;2024-01-25T00:46:24;102131.06;;;7.79;90.74
84528;BME280;74768;51.152;6.196;2024-01-25T00:48:49;102123.06;;;7.92;90.51
84528;BME280;74768;51.152;6.196;2024-01-25T00:51:15;102122.25;;;7.87;90.34
84528;BME280;74768;51.152;6.196;2024-01-25T00:53:44;102126.69;;;7.77;90.54
84528;BME280;74768;51.152;6.196;2024-01-25T00:56:10;102134.63;;;7.71;90.97
84528;BME280;74768;51.152;6.196;2024-01-25T00:58:36;102131.94;;;7.77;90.88
84528;BME280;74768;51.152;6.196;2024-01-25T01:01:01;102133.69;;;7.76;90.76
84528;BME280;74768;51.152;6.196;2024-01-25T01:03:27;102130.28;;;7.65;91.26
84528;BME280;74768;51.152;6.196;2024-01-25T01:05:53;102126.00;;;7.48;91.73
84528;BME280;74768;51.152;6.196;2024-01-25T01:08:18;102136.63;;;7.29;91.87
84528;BME280;74768;51.152;6.196;2024-01-25T01:10:44;102146.31;;;7.09;92.70
84528;BME280;74768;51.152;6.196;2024-01-25T01:13:09;102142.03;;;6.88;93.39
84528;BME280;74768;51.152;6.196;2024-01-25T01:15:34;102131.53;;;6.91;94.43
84528;BME280;74768;51.152;6.196;2024-01-25T01:17:59;102137.69;;;6.78;94.56
84528;BME280;74768;51.152;6.196;2024-01-25T01:20:25;102140.31;;;6.68;94.90
84528;BME280;74768;51.152;6.196;2024-01-25T01:22:51;102132.47;;;6.60;94.85
84528;BME280;74768;51.152;6.196;2024-01-25T01:25:17;102136.88;;;6.55;94.66
84528;BME280;74768;51.152;6.196;2024-01-25T01:27:42;102139.50;;;6.47;95.68
84528;BME280;74768;51.152;6.196;2024-01-25T01:30:07;102143.00;;;6.39;95.99
84528;BME280;74768;51.152;6.196;2024-01-25T01:32:33;102136.00;;;6.38;96.33
84528;BME280;74768;51.152;6.196;2024-01-25T01:34:58;102136.88;;;6.37;96.10
84528;BME280;74768;51.152;6.196;2024-01-25T01:37:24;102136.03;;;6.33;96.98
84528;BME280;74768;51.152;6.196;2024-01-25T01:39:49;102135.16;;;6.31;96.59
84528;BME280;74768;51.152;6.196;2024-01-25T01:42:14;102133.41;;;6.24;96.49
84528;BME280;74768;51.152;6.196;2024-01-25T01:44:40;102143.91;;;6.12;96.39
84528;BME280;74768;51.152;6.196;2024-01-25T01:47:05;102148.25;;;6.14;96.92
84528;BME280;74768;51.152;6.196;2024-01-25T01:49:30;102150.00;;;6.09;97.03
84528;BME280;74768;51.152;6.196;2024-01-25T01:51:56;102157.88;;;6.06;97.22
84528;BME280;74768;51.152;6.196;2024-01-25T01:54:22;102147.38;;;6.11;97.33
84528;BME280;74768;51.152;6.196;2024-01-25T01:56:48;102158.75;;;6.11;97.05
84528;BME280;74768;51.152;6.196;2024-01-25T01:59:15;102164.88;;;6.04;97.17
84528;BME280;74768;51.152;6.196;2024-01-25T02:01:41;102169.22;;;6.02;97.38
84528;BME280;74768;51.152;6.196;2024-01-25T02:04:06;102169.22;;;5.96;97.29
84528;BME280;74768;51.152;6.196;2024-01-25T02:06:32;102181.44;;;5.88;97.39
84528;BME280;74768;51.152;6.196;2024-01-25T02:08:57;102182.28;;;5.87;97.89
84528;BME280;74768;51.152;6.196;2024-01-25T02:11:26;102192.75;;;5.75;97.28
84528;BME280;74768;51.152;6.196;2024-01-25T02:13:51;102190.09;;;5.78;98.25
84528;BME280;74768;51.152;6.196;2024-01-25T02:16:18;102192.72;;;5.73;98.04
84528;BME280;74768;51.152;6.196;2024-01-25T02:18:45;102192.69;;;5.64;98.25
84528;BME280;74768;51.152;6.196;2024-01-25T02:21:10;102189.19;;;5.56;98.32
84528;BME280;74768;51.152;6.196;2024-01-25T02:23:35;102196.16;;;5.46;98.08
84528;BME280;74768;51.152;6.196;2024-01-25T02:26:01;102202.25;;;5.44;98.49
84528;BME280;74768;51.152;6.196;2024-01-25T02:28:26;102202.25;;;5.44;98.20
84528;BME280;74768;51.152;6.196;2024-01-25T02:30:51;102211.00;;;5.47;98.84
84528;BME280;74768;51.152;6.196;2024-01-25T02:33:17;102213.59;;;5.40;98.18
84528;BME280;74768;51.152;6.196;2024-01-25T02:35:42;102217.03;;;5.34;98.38
84528;BME280;74768;51.152;6.196;2024-01-25T02:38:07;102212.66;;;5.26;98.63
84528;BME280;74768;51.152;6.196;2024-01-25T02:40:32;102220.47;;;5.23;98.36
84528;BME280;74768;51.152;6.196;2024-01-25T02:42:58;102223.94;;;5.17;98.44
84528;BME280;74768;51.152;6.196;2024-01-25T02:45:23;102221.28;;;5.13;98.72
84528;BME280;74768;51.152;6.196;2024-01-25T02:47:49;102230.88;;;5.12;98.89
84528;BME280;74768;51.152;6.196;2024-01-25T02:50:15;102214.31;;;5.10;98.68
84528;BME280;74768;51.152;6.196;2024-01-25T02:52:40;102211.69;;;5.12;99.23
84528;BME280;74768;51.152;6.196;2024-01-25T02:55:06;102223.88;;;5.06;99.29
84528;BME280;74768;51.152;6.196;2024-01-25T02:57:31;102225.63;;;5.07;99.23
84528;BME280;74768;51.152;6.196;2024-01-25T02:59:57;102229.09;;;5.03;98.55
84528;BME280;74768;51.152;6.196;2024-01-25T03:02:22;102235.19;;;5.05;99.00
84528;BME280;74768;51.152;6.196;2024-01-25T03:04:48;102229.94;;;4.99;99.02
84528;BME280;74768;51.152;6.196;2024-01-25T03:07:13;102235.09;;;4.87;99.15
84528;BME280;74768;51.152;6.196;2024-01-25T03:09:39;102234.16;;;4.82;98.60
84528;BME280;74768;51.152;6.196;2024-01-25T03:12:04;102242.88;;;4.78;99.00
84528;BME280;74768;51.152;6.196;2024-01-25T03:14:30;102242.00;;;4.75;99.12
84528;BME280;74768;51.152;6.196;2024-01-25T03:16:55;102242.75;;;4.58;98.79
84528;BME280;74768;51.152;6.196;2024-01-25T03:19:25;102251.41;;;4.53;98.79
84528;BME280;74768;51.152;6.196;2024-01-25T03:21:51;102248.78;;;4.54;98.63
84528;BME280;74768;51.152;6.196;2024-01-25T03:24:16;102253.09;;;4.48;99.06
84528;BME280;74768;51.152;6.196;2024-01-25T03:26:41;102253.97;;;4.48;98.74
84528;BME280;74768;51.152;6.196;2024-01-25T03:29:06;102251.38;;;4.50;99.37
84528;BME280;74768;51.152;6.196;2024-01-25T03:31:32;102244.34;;;4.46;98.83
84528;BME280;74768;51.152;6.196;2024-01-25T03:33:57;102243.50;;;4.45;98.91
84528;BME280;74768;51.152;6.196;2024-01-25T03:36:22;102245.28;;;4.51;99.07
84528;BME280;74768;51.152;6.196;2024-01-25T03:38:48;102243.56;;;4.51;100.00
84528;BME280;74768;51.152;6.196;2024-01-25T03:41:13;102229.59;;;4.49;99.77
84528;BME280;74768;51.152;6.196;2024-01-25T03:43:38;102231.38;;;4.55;99.71
84528;BME280;74768;51.152;6.196;2024-01-25T03:46:04;102219.16;;;4.52;99.27
84528;BME280;74768;51.152;6.196;2024-01-25T03:48:30;102224.38;;;4.54;99.98
84528;BME280;74768;51.152;6.196;2024-01-25T03:50:55;102231.38;;;4.56;99.22
84528;BME280;74768;51.152;6.196;2024-01-25T03:53:22;102230.56;;;4.62;99.60
84528;BME280;74768;51.152;6.196;2024-01-25T03:55:47;102239.31;;;4.65;99.48
84528;BME280;74768;51.152;6.196;2024-01-25T03:58:14;102231.41;;;4.59;99.35
84528;BME280;74768;51.152;6.196;2024-01-25T04:00:39;102236.75;;;4.73;99.56
84528;BME280;74768;51.152;6.196;2024-01-25T04:03:04;102238.50;;;4.74;100.00
84528;BME280;74768;51.152;6.196;2024-01-25T04:05:30;102231.47;;;4.65;100.00
84528;BME280;74768;51.152;6.196;2024-01-25T04:07:55;102227.09;;;4.64;100.00
84528;BME280;74768;51.152;6.196;2024-01-25T04:10:20;102227.91;;;4.56;99.96
84528;BME280;74768;51.152;6.196;2024-01-25T04:12:46;102235.75;;;4.57;99.59
84528;BME280;74768;51.152;6.196;2024-01-25T04:15:11;102231.44;;;4.62;99.81
84528;BME280;74768;51.152;6.196;2024-01-25T04:17:36;102228.81;;;4.59;99.68
84528;BME280;74768;51.152;6.196;2024-01-25T04:20:01;102233.91;;;4.47;99.86
84528;BME280;74768;51.152;6.196;2024-01-25T04:22:28;102238.19;;;4.36;99.80
84528;BME280;74768;51.152;6.196;2024-01-25T04:24:53;102241.63;;;4.30;99.40
84528;BME280;74768;51.152;6.196;2024-01-25T04:27:18;102235.47;;;4.25;100.00
84528;BME280;74768;51.152;6.196;2024-01-25T04:29:44;102237.31;;;4.36;99.82
84528;BME280;74768;51.152;6.196;2024-01-25T04:32:09;102236.41;;;4.34;100.00
84528;BME280;74768;51.152;6.196;2024-01-25T04:34:35;102231.16;;;4.29;99.86
84528;BME280;74768;51.152;6.196;2024-01-25T04:37:00;102234.63;;;4.26;99.87
84528;BME280;74768;51.152;6.196;2024-01-25T04:39:26;102237.13;;;4.17;99.67
84528;BME280;74768;51.152;6.196;2024-01-25T04:41:51;102236.16;;;4.06;99.62
84528;BME280;74768;51.152;6.196;2024-01-25T04:44:17;102225.69;;;4.03;99.91
84528;BME280;74768;51.152;6.196;2024-01-25T04:46:43;102228.25;;;3.99;99.54
84528;BME280;74768;51.152;6.196;2024-01-25T04:49:08;102233.47;;;3.99;99.52
84528;BME280;74768;51.152;6.196;2024-01-25T04:51:34;102234.31;;;3.93;99.94
84528;BME280;74768;51.152;6.196;2024-01-25T04:54:00;102222.97;;;3.92;99.97
84528;BME280;74768;51.152;6.196;2024-01-25T04:56:25;102229.88;;;3.87;99.44
84528;BME280;74768;51.152;6.196;2024-01-25T04:58:50;102236.72;;;3.76;99.64
84528;BME280;74768;51.152;6.196;2024-01-25T05:01:16;102231.47;;;3.75;99.45
84528;BME280;74768;51.152;6.196;2024-01-25T05:03:41;102240.22;;;3.80;100.00
84528;BME280;74768;51.152;6.196;2024-01-25T05:06:07;102236.81;;;3.84;99.62
84528;BME280;74768;51.152;6.196;2024-01-25T05:08:32;102237.63;;;3.80;100.00
84528;BME280;74768;51.152;6.196;2024-01-25T05:10:58;102250.63;;;3.72;100.00
84528;BME280;74768;51.152;6.196;2024-01-25T05:13:23;102259.31;;;3.71;100.00
84528;BME280;74768;51.152;6.196;2024-01-25T05:15:48;102256.69;;;3.73;99.83
84528;BME280;74768;51.152;6.196;2024-01-25T05:18:14;102255.84;;;3.72;100.00
84528;BME280;74768;51.152;6.196;2024-01-25T05:20:39;102252.28;;;3.67;99.99
84528;BME280;74768;51.152;6.196;2024-01-25T05:23:04;102250.59;;;3.71;100.00
84528;BME280;74768;51.152;6.196;2024-01-25T05:25:30;102252.25;;;3.66;99.89
84528;BME280;74768;51.152;6.196;2024-01-25T05:27:56;102260.09;;;3.67;100.00
84528;BME280;74768;51.152;6.196;2024-01-25T05:30:22;102260.09;;;3.64;100.00
84528;BME280;74768;51.152;6.196;2024-01-25T05:32:48;102259.97;;;3.55;100.00
84528;BME280;74768;51.152;6.196;2024-01-25T05:35:15;102270.38;;;3.50;100.00
84528;BME280;74768;51.152;6.196;2024-01-25T05:37:40;102257.31;;;3.50;99.65
84528;BME280;74768;51.152;6.196;2024-01-25T05:40:06;102257.34;;;3.53;100.00
84528;BME280;74768;51.152;6.196;2024-01-25T05:42:31;102251.19;;;3.48;100.00
84528;BME280;74768;51.152;6.196;2024-01-25T05:44:57;102260.69;;;3.45;99.78
84528;BME280;74768;51.152;6.196;2024-01-25T05:47:22;102251.09;;;3.41;100.00
84528;BME280;74768;51.152;6.196;2024-01-25T05:49:48;102260.66;;;3.40;99.63
84528;BME280;74768;51.152;6.196;2024-01-25T05:52:13;102249.34;;;3.40;100.00
84528;BME280;74768;51.152;6.196;2024-01-25T05:54:38;102248.41;;;3.36;100.00
84528;BME280;74768;51.152;6.196;2024-01-25T05:57:04;102258.78;;;3.29;99.85
84528;BME280;74768;51.152;6.196;2024-01-25T05:59:29;102260.44;;;3.25;100.00
84528;BME280;74768;51.152;6.196;2024-01-25T06:01:55;102257.78;;;3.22;99.98
84528;BME280;74768;51.152;6.196;2024-01-25T06:04:20;102266.44;;;3.18;99.86
84528;BME280;74768;51.152;6.196;2024-01-25T06:06:46;102262.91;;;3.14;100.00
84528;BME280;74768;51.152;6.196;2024-01-25T06:09:11;102263.63;;;3.04;100.00
84528;BME280;74768;51.152;6.196;2024-01-25T06:11:36;102280.94;;;2.98;99.72
84528;BME280;74768;51.152;6.196;2024-01-25T06:14:04;102281.69;;;2.92;99.74
84528;BME280;74768;51.152;6.196;2024-01-25T06:16:29;102278.13;;;2.84;100.00
84528;BME280;74768;51.152;6.196;2024-01-25T06:18:55;102283.22;;;2.77;99.83
84528;BME280;74768;51.152;6.196;2024-01-25T06:21:20;102284.94;;;2.76;99.90
84528;BME280;74768;51.152;6.196;2024-01-25T06:23:45;102288.31;;;2.72;99.76
84528;BME280;74768;51.152;6.196;2024-01-25T06:26:10;102288.41;;;2.75;99.97
84528;BME280;74768;51.152;6.196;2024-01-25T06:28:36;102278.94;;;2.82;100.00
84528;BME280;74768;51.152;6.196;2024-01-25T06:31:01;102277.16;;;2.78;99.44
84528;BME280;74768;51.152;6.196;2024-01-25T06:33:26;102281.38;;;2.72;99.98
84528;BME280;74768;51.152;6.196;2024-01-25T06:35:52;102283.06;;;2.67;99.97
84528;BME280;74768;51.152;6.196;2024-01-25T06:38:17;102285.53;;;2.60;99.67
84528;BME280;74768;51.152;6.196;2024-01-25T06:40:43;102286.34;;;2.57;99.78
84528;BME280;74768;51.152;6.196;2024-01-25T06:43:09;102281.22;;;2.62;99.52
84528;BME280;74768;51.152;6.196;2024-01-25T06:45:34;102280.25;;;2.57;99.92
84528;BME280;74768;51.152;6.196;2024-01-25T06:47:59;102288.00;;;2.52;99.79
84528;BME280;74768;51.152;6.196;2024-01-25T06:50:24;102294.13;;;2.54;100.00
84528;BME280;74768;51.152;6.196;2024-01-25T06:52:50;102294.97;;;2.53;99.84
84528;BME280;74768;51.152;6.196;2024-01-25T06:55:15;102308.84;;;2.52;100.00
84528;BME280;74768;51.152;6.196;2024-01-25T06:57:41;102318.34;;;2.47;99.99
84528;BME280;74768;51.152;6.196;2024-01-25T07:00:06;102313.84;;;2.39;100.00
84528;BME280;74768;51.152;6.196;2024-01-25T07:02:33;102331.28;;;2.44;99.92
84528;BME280;74768;51.152;6.196;2024-01-25T07:04:58;102329.63;;;2.48;100.00
84528;BME280;74768;51.152;6.196;2024-01-25T07:07:23;102327.91;;;2.48;100.00
84528;BME280;74768;51.152;6.196;2024-01-25T07:09:48;102319.28;;;2.52;100.00
84528;BME280;74768;51.152;6.196;2024-01-25T07:12:14;102321.13;;;2.59;100.00
84528;BME280;74768;51.152;6.196;2024-01-25T07:14:39;102321.34;;;2.70;100.00
84528;BME280;74768;51.152;6.196;2024-01-25T07:17:04;102328.44;;;2.80;100.00
84528;BME280;74768;51.152;6.196;2024-01-25T07:19:30;102332.03;;;2.87;100.00
84528;BME280;74768;51.152;6.196;2024-01-25T07:21:55;102330.44;;;2.96;100.00
84528;BME280;74768;51.152;6.196;2024-01-25T07:24:20;102338.47;;;3.10;100.00
84528;BME280;74768;51.152;6.196;2024-01-25T07:26:45;102321.28;;;3.23;100.00
84528;BME280;74768;51.152;6.196;2024-01-25T07:29:11;102315.34;;;3.33;100.00
84528;BME280;74768;51.152;6.196;2024-01-25T07:31:36;102310.22;;;3.39;100.00
84528;BME280;74768;51.152;6.196;2024-01-25T07:34:01;102311.19;;;3.47;100.00
84528;BME280;74768;51.152;6.196;2024-01-25T07:36:27;102315.63;;;3.52;100.00
84528;BME280;74768;51.152;6.196;2024-01-25T07:38:52;102313.97;;;3.59;100.00
84528;BME280;74768;51.152;6.196;2024-01-25T07:41:17;102313.16;;;3.63;100.00
84528;BME280;74768;51.152;6.196;2024-01-25T07:43:43;102322.72;;;3.63;100.00
84528;BME280;74768;51.152;6.196;2024-01-25T07:46:09;102317.56;;;3.69;100.00
84528;BME280;74768;51.152;6.196;2024-01-25T07:48:35;102328.97;;;3.75;100.00
84528;BME280;74768;51.152;6.196;2024-01-25T07:51:00;102325.59;;;3.84;100.00
84528;BME280;74768;51.152;6.196;2024-01-25T07:53:26;102318.75;;;3.94;100.00
84528;BME280;74768;51.152;6.196;2024-01-25T07:55:52;102312.75;;;4.04;100.00
84528;BME280;74768;51.152;6.196;2024-01-25T07:58:17;102315.47;;;4.11;100.00
84528;BME280;74768;51.152;6.196;2024-01-25T08:00:42;102325.13;;;4.18;100.00
84528;BME280;74768;51.152;6.196;2024-01-25T08:03:08;102333.97;;;4.32;100.00
84528;BME280;74768;51.152;6.196;2024-01-25T08:05:34;102338.50;;;4.49;100.00
84528;BME280;74768;51.152;6.196;2024-01-25T08:07:59;102333.38;;;4.58;100.00
84528;BME280;74768;51.152;6.196;2024-01-25T08:10:25;102327.34;;;4.65;100.00
84528;BME280;74768;51.152;6.196;2024-01-25T08:12:50;102322.19;;;4.74;100.00
84528;BME280;74768;51.152;6.196;2024-01-25T08:15:15;102309.16;;;4.79;100.00
84528;BME280;74768;51.152;6.196;2024-01-25T08:17:41;102312.69;;;4.87;100.00
84528;BME280;74768;51.152;6.196;2024-01-25T08:20:06;102314.53;;;4.95;100.00
84528;BME280;74768;51.152;6.196;2024-01-25T08:22:32;102318.03;;;5.00;100.00
84528;BME280;74768;51.152;6.196;2024-01-25T08:24:58;102318.94;;;5.05;100.00
84528;BME280;74768;51.152;6.196;2024-01-25T08:27:24;102315.50;;;5.09;100.00
84528;BME280;74768;51.152;6.196;2024-01-25T08:29:49;102315.50;;;5.13;100.00
84528;BME280;74768;51.152;6.196;2024-01-25T08:32:14;102317.31;;;5.21;100.00
84528;BME280;74768;51.152;6.196;2024-01-25T08:34:40;102315.63;;;5.29;100.00
84528;BME280;74768;51.152;6.196;2024-01-25T08:37:05;102327.03;;;5.40;100.00
84528;BME280;74768;51.152;6.196;2024-01-25T08:39:30;102332.25;;;5.42;100.00
84528;BME280;74768;51.152;6.196;2024-01-25T08:41:56;102330.56;;;5.45;100.00
84528;BME280;74768;51.152;6.196;2024-01-25T08:44:25;102319.22;;;5.46;100.00
84528;BME280;74768;51.152;6.196;2024-01-25T08:46:50;102314.03;;;5.54;100.00
84528;BME280;74768;51.152;6.196;2024-01-25T08:49:16;102322.78;;;5.59;100.00
84528;BME280;74768;51.152;6.196;2024-01-25T08:51:41;102318.41;;;5.63;100.00
84528;BME280;74768;51.152;6.196;2024-01-25T08:54:07;102315.81;;;5.64;100.00
84528;BME280;74768;51.152;6.196;2024-01-25T08:56:32;102314.09;;;5.71;100.00
84528;BME280;74768;51.152;6.196;2024-01-25T08:58:57;102331.63;;;5.84;100.00
84528;BME280;74768;51.152;6.196;2024-01-25T09:01:22;102318.56;;;5.89;100.00
84528;BME280;74768;51.152;6.196;2024-01-25T09:03:48;102313.34;;;5.92;100.00
84528;BME280;74768;51.152;6.196;2024-01-25T09:06:13;102292.38;;;5.92;100.00
84528;BME280;74768;51.152;6.196;2024-01-25T09:08:40;102287.16;;;5.92;100.00
84528;BME280;74768;51.152;6.196;2024-01-25T09:11:05;102288.03;;;6.00;100.00
84528;BME280;74768;51.152;6.196;2024-01-25T09:13:30;102307.25;;;6.08;100.00
84528;BME280;74768;51.152;6.196;2024-01-25T09:15:57;102316.00;;;6.07;100.00
84528;BME280;74768;51.152;6.196;2024-01-25T09:18:22;102329.97;;;6.07;100.00
84528;BME280;74768;51.152;6.196;2024-01-25T09:20:47;102335.28;;;6.19;100.00
84528;BME280;74768;51.152;6.196;2024-01-25T09:23:16;102337.91;;;6.24;100.00
84528;BME280;74768;51.152;6.196;2024-01-25T09:25:42;102331.78;;;6.22;100.00
84528;BME280;74768;51.152;6.196;2024-01-25T09:28:08;102316.94;;;6.38;100.00
84528;BME280;74768;51.152;6.196;2024-01-25T09:30:33;102328.34;;;6.46;100.00
84528;BME280;74768;51.152;6.196;2024-01-25T09:32:58;102332.72;;;6.48;100.00
84528;BME280;74768;51.152;6.196;2024-01-25T09:35:24;102319.63;;;6.62;100.00
84528;BME280;74768;51.152;6.196;2024-01-25T09:37:49;102321.38;;;6.68;100.00
84528;BME280;74768;51.152;6.196;2024-01-25T09:40:20;102315.25;;;6.72;100.00
84528;BME280;74768;51.152;6.196;2024-01-25T09:42:47;102312.63;;;6.78;100.00
84528;BME280;74768;51.152;6.196;2024-01-25T09:45:16;102317.88;;;6.75;100.00
84528;BME280;74768;51.152;6.196;2024-01-25T09:47:41;102320.50;;;6.79;100.00
84528;BME280;74768;51.152;6.196;2024-01-25T09:50:07;102310.88;;;6.90;100.00
84528;BME280;74768;51.152;6.196;2024-01-25T09:52:34;102321.34;;;7.10;100.00
84528;BME280;74768;51.152;6.196;2024-01-25T09:54:59;102308.22;;;7.09;99.60
84528;BME280;74768;51.152;6.196;2024-01-25T09:57:27;102295.97;;;7.11;99.26
84528;BME280;74768;51.152;6.196;2024-01-25T09:59:54;102309.09;;;7.21;99.02
84528;BME280;74768;51.152;6.196;2024-01-25T10:02:20;102308.22;;;7.15;98.20
84528;BME280;74768;51.152;6.196;2024-01-25T10:04:49;102306.44;;;7.27;98.83
84528;BME280;74768;51.152;6.196;2024-01-25T10:07:16;102319.59;;;7.30;98.11
84528;BME280;74768;51.152;6.196;2024-01-25T10:09:42;102322.19;;;7.33;97.77
84528;BME280;74768;51.152;6.196;2024-01-25T10:12:08;102323.91;;;7.39;97.64
84528;BME280;74768;51.152;6.196;2024-01-25T10:14:33;102334.41;;;7.56;98.32
84528;BME280;74768;51.152;6.196;2024-01-25T10:17:00;102330.00;;;7.55;96.55
84528;BME280;74768;51.152;6.196;2024-01-25T10:19:25;102325.63;;;7.60;96.51
84528;BME280;74768;51.152;6.196;2024-01-25T10:21:50;102329.16;;;7.57;96.34
84528;BME280;74768;51.152;6.196;2024-01-25T10:24:16;102341.41;;;7.58;97.10
84528;BME280;74768;51.152;6.196;2024-01-25T10:26:41;102342.31;;;7.45;95.83
84528;BME280;74768;51.152;6.196;2024-01-25T10:29:09;102348.47;;;7.27;95.58
84528;BME280;74768;51.152;6.196;2024-01-25T10:31:38;102343.19;;;7.41;96.64
84528;BME280;74768;51.152;6.196;2024-01-25T10:34:06;102347.59;;;7.27;96.21
84528;BME280;74768;51.152;6.196;2024-01-25T10:36:32;102344.09;;;7.28;96.62
84528;BME280;74768;51.152;6.196;2024-01-25T10:38:59;102332.72;;;7.27;96.92
84528;BME280;74768;51.152;6.196;2024-01-25T10:41:26;102311.69;;;7.33;96.94
84528;BME280;74768;51.152;6.196;2024-01-25T10:43:51;102313.44;;;7.34;96.62
84528;BME280;74768;51.152;6.196;2024-01-25T10:46:17;102314.28;;;7.39;97.23
84528;BME280;74768;51.152;6.196;2024-01-25T10:48:44;102309.94;;;7.35;95.88
84528;BME280;74768;51.152;6.196;2024-01-25T10:51:09;102302.94;;;7.33;96.23
84528;BME280;74768;51.152;6.196;2024-01-25T10:53:36;102298.50;;;7.47;96.96
84528;BME280;74768;51.152;6.196;2024-01-25T10:56:02;102301.97;;;7.61;96.40
84528;BME280;74768;51.152;6.196;2024-01-25T10:58:32;102308.97;;;7.65;95.92
84528;BME280;74768;51.152;6.196;2024-01-25T11:01:09;102294.97;;;7.66;94.27
84528;BME280;74768;51.152;6.196;2024-01-25T11:03:39;102281.81;;;7.66;94.40
84528;BME280;74768;51.152;6.196;2024-01-25T11:06:10;102285.25;;;7.74;95.08
84528;BME280;74768;51.152;6.196;2024-01-25T11:08:39;102268.44;;;8.09;96.14
84528;BME280;74768;51.152;6.196;2024-01-25T11:11:10;102257.78;;;8.33;92.32
84528;BME280;74768;51.152;6.196;2024-01-25T11:13:39;102263.75;;;8.58;91.64
84528;BME280;74768;51.152;6.196;2024-01-25T11:16:15;102250.50;;;8.69;89.97
84528;BME280;74768;51.152;6.196;2024-01-25T11:18:50;102246.94;;;8.73;91.83
84528;BME280;74768;51.152;6.196;2024-01-25T11:22:07;102245.13;;;8.78;89.36
84528;BME280;74768;51.152;6.196;2024-01-25T11:24:15;102249.50;;;8.82;88.56
84528;BME280;74768;51.152;6.196;2024-01-25T11:26:44;102233.50;;;8.98;87.84
84528;BME280;74768;51.152;6.196;2024-01-25T11:29:12;102218.88;;;8.72;87.90
84528;BME280;74768;51.152;6.196;2024-01-25T11:31:39;102219.88;;;8.57;89.22
84528;BME280;74768;51.152;6.196;2024-01-25T11:34:05;102209.34;;;8.58;89.13
84528;BME280;74768;51.152;6.196;2024-01-25T11:36:30;102202.22;;;8.70;87.45
84528;BME280;74768;51.152;6.196;2024-01-25T11:38:56;102208.31;;;8.76;88.30
84528;BME280;74768;51.152;6.196;2024-01-25T11:41:22;102203.72;;;8.93;88.42
84528;BME280;74768;51.152;6.196;2024-01-25T11:43:48;102202.88;;;8.91;87.04
84528;BME280;74768;51.152;6.196;2024-01-25T11:46:14;102215.94;;;9.01;87.37
84528;BME280;74768;51.152;6.196;2024-01-25T11:48:40;102207.88;;;9.17;86.07
84528;BME280;74768;51.152;6.196;2024-01-25T11:51:07;102198.94;;;9.30;85.91
84528;BME280;74768;51.152;6.196;2024-01-25T11:53:33;102206.72;;;9.41;84.84
84528;BME280;74768;51.152;6.196;2024-01-25T11:55:59;102193.47;;;9.46;85.01
84528;BME280;74768;51.152;6.196;2024-01-25T11:58:24;102180.38;;;9.38;84.43
84528;BME280;74768;51.152;6.196;2024-01-25T12:00:50;102172.47;;;9.40;85.35
84528;BME280;74768;51.152;6.196;2024-01-25T12:03:16;102188.13;;;9.50;84.65
84528;BME280;74768;51.152;6.196;2024-01-25T12:05:41;102189.69;;;9.65;84.13
84528;BME280;74768;51.152;6.196;2024-01-25T12:08:13;102182.66;;;9.65;83.12
84528;BME280;74768;51.152;6.196;2024-01-25T12:10:38;102191.31;;;9.75;83.15
84528;BME280;74768;51.152;6.196;2024-01-25T12:13:07;102188.44;;;9.92;81.69
84528;BME280;74768;51.152;6.196;2024-01-25T12:15:32;102179.75;;;9.85;80.96
84528;BME280;74768;51.152;6.196;2024-01-25T12:17:58;102179.94;;;9.71;80.98
84528;BME280;74768;51.152;6.196;2024-01-25T12:20:23;102194.91;;;9.69;81.58
84528;BME280;74768;51.152;6.196;2024-01-25T12:22:49;102189.66;;;9.66;82.03
84528;BME280;74768;51.152;6.196;2024-01-25T12:25:15;102201.84;;;9.76;81.74
84528;BME280;74768;51.152;6.196;2024-01-25T12:27:40;102181.50;;;9.86;80.99
84528;BME280;74768;51.152;6.196;2024-01-25T12:30:06;102151.41;;;9.99;81.21
84528;BME280;74768;51.152;6.196;2024-01-25T12:32:33;102156.38;;;10.16;81.51
84528;BME280;74768;51.152;6.196;2024-01-25T12:35:00;102159.75;;;10.27;79.15
84528;BME280;74768;51.152;6.196;2024-01-25T12:37:31;102158.81;;;10.31;78.75
84528;BME280;74768;51.152;6.196;2024-01-25T12:39:57;102159.78;;;10.26;79.71
84528;BME280;74768;51.152;6.196;2024-01-25T12:42:22;102149.97;;;10.34;80.04
84528;BME280;74768;51.152;6.196;2024-01-25T12:44:48;102154.41;;;10.30;79.57
84528;BME280;74768;51.152;6.196;2024-01-25T12:47:14;102143.94;;;10.27;79.47
84528;BME280;74768;51.152;6.196;2024-01-25T12:49:43;102134.41;;;10.19;79.83